Time;durP1;ratioP1;P1;durP2;ratioP2;P2;SDS_P1;SDS_P2;PMS_P1;PMS_P2;Temp;Humidity;BMP_temperature;BMP_pressure;BME280_temperature;BME280_humidity;BME280_pressure;Samples;Min_cycle;Max_cycle;Signal;HPM_P1;HPM_P2
2023/01/04 00:00:44;;;;;;;142.90;62.60;;;;;;;3.76;68.86;99795.06;4969577;28;20105;-70
2023/01/04 00:03:11;;;;;;;161.68;70.35;;;;;;;3.78;68.75;99793.81;4971028;28;20035;-70
2023/01/04 00:05:36;;;;;;;143.30;60.70;;;;;;;3.83;68.67;99795.88;4971810;28;20098;-71
2023/01/04 00:08:02;;;;;;;111.50;53.47;;;;;;;3.87;69.18;99794.38;4971589;28;20114;-71
2023/01/04 00:10:27;;;;;;;120.18;56.08;;;;;;;3.92;68.72;99783.69;4970804;28;20519;-71
2023/01/04 00:12:53;;;;;;;109.88;53.60;;;;;;;3.97;68.74;99792.00;4971556;28;20432;-72
2023/01/04 00:15:18;;;;;;;110.60;52.78;;;;;;;3.98;68.87;99785.53;5054707;28;20394;-70
2023/01/04 00:17:43;;;;;;;115.47;51.47;;;;;;;3.97;68.62;99785.75;5072689;28;20045;-70
2023/01/04 00:20:09;;;;;;;103.38;46.55;;;;;;;3.95;69.47;99787.84;5072502;28;20033;-70
2023/01/04 00:22:35;;;;;;;103.15;48.28;;;;;;;3.95;69.11;99780.53;5072644;28;20466;-70
2023/01/04 00:25:00;;;;;;;90.80;44.25;;;;;;;3.98;68.76;99784.69;5069569;28;20112;-70
2023/01/04 00:27:26;;;;;;;81.75;39.10;;;;;;;3.99;69.56;99781.78;5016121;28;20031;-70
2023/01/04 00:29:51;;;;;;;80.90;37.45;;;;;;;4.03;69.21;99787.56;5004285;28;20023;-69
2023/01/04 00:32:17;;;;;;;79.07;37.22;;;;;;;4.06;68.84;99783.59;4997294;28;20591;-69
2023/01/04 00:34:42;;;;;;;97.18;45.70;;;;;;;4.09;68.69;99783.13;4978408;28;20071;-70
2023/01/04 00:37:08;;;;;;;84.22;40.20;;;;;;;4.09;68.88;99775.84;4988564;28;20034;-69
2023/01/04 00:39:33;;;;;;;91.82;41.42;;;;;;;4.09;69.50;99780.44;5006489;28;20103;-69
2023/01/04 00:42:03;;;;;;;109.60;43.47;;;;;;;4.06;69.29;99772.75;5021169;28;20034;-69
2023/01/04 00:44:33;;;;;;;105.15;41.63;;;;;;;4.03;68.79;99774.00;5016851;28;20028;-68
2023/01/04 00:46:59;;;;;;;90.93;40.17;;;;;;;4.01;69.08;99774.25;5016518;28;20114;-71
2023/01/04 00:49:26;;;;;;;118.15;44.03;;;;;;;4.01;69.24;99771.53;4970872;28;20038;-70
2023/01/04 00:51:52;;;;;;;109.07;42.63;;;;;;;3.99;69.06;99770.91;4971424;28;20043;-69
2023/01/04 00:54:17;;;;;;;119.38;46.78;;;;;;;3.98;68.76;99771.97;4971171;28;20027;-70
2023/01/04 00:56:44;;;;;;;120.13;45.00;;;;;;;3.96;68.73;99775.94;4970005;28;20064;-70
2023/01/04 00:59:11;;;;;;;227.10;75.28;;;;;;;3.94;68.81;99776.16;4970925;28;20640;-70
2023/01/04 01:01:39;;;;;;;166.70;56.83;;;;;;;3.92;69.22;99789.13;4970104;28;20172;-70
2023/01/04 01:04:04;;;;;;;193.35;66.97;;;;;;;3.89;68.92;99781.41;4969868;28;20500;-69
2023/01/04 01:06:32;;;;;;;160.35;57.35;;;;;;;3.86;68.96;99779.16;4968222;28;20031;-69
2023/01/04 01:08:58;;;;;;;108.70;45.80;;;;;;;3.81;69.18;99787.94;4969563;28;20422;-69
2023/01/04 01:11:24;;;;;;;104.40;46.88;;;;;;;3.73;68.86;99783.59;4969540;28;20031;-68
2023/01/04 01:13:50;;;;;;;105.47;45.05;;;;;;;3.67;69.17;99780.94;4987497;28;20025;-68
2023/01/04 01:16:18;;;;;;;101.18;45.40;;;;;;;3.61;69.30;99787.22;4991797;28;20035;-68
2023/01/04 01:18:44;;;;;;;99.65;45.45;;;;;;;3.54;69.74;99781.84;4970179;28;20022;-69
2023/01/04 01:21:19;;;;;;;100.32;43.53;;;;;;;3.48;69.07;99788.13;4968891;28;20120;-68
2023/01/04 01:23:45;;;;;;;96.53;43.25;;;;;;;3.40;69.83;99789.22;4970189;28;20096;-69
2023/01/04 01:26:13;;;;;;;93.75;42.60;;;;;;;3.37;68.93;99793.19;4969760;28;20054;-69
2023/01/04 01:28:39;;;;;;;96.47;42.92;;;;;;;3.31;69.03;99794.03;4973698;28;20030;-68
2023/01/04 01:31:10;;;;;;;96.25;41.42;;;;;;;3.27;69.32;99798.22;4968334;28;20395;-68
2023/01/04 01:33:37;;;;;;;91.30;39.88;;;;;;;3.25;69.59;99803.06;4969547;28;20429;-68
2023/01/04 01:36:04;;;;;;;95.90;40.38;;;;;;;3.21;69.24;99785.56;4968900;28;20043;-68
2023/01/04 01:38:29;;;;;;;82.10;38.75;;;;;;;3.18;69.56;99786.81;4972599;28;20031;-68
2023/01/04 01:40:54;;;;;;;84.72;38.67;;;;;;;3.18;69.41;99788.69;4968744;28;20096;-68
2023/01/04 01:43:22;;;;;;;77.32;34.75;;;;;;;3.17;69.71;99795.16;4969176;28;20038;-69
2023/01/04 01:45:54;;;;;;;71.65;34.17;;;;;;;3.14;69.45;99788.28;4968056;28;20022;-68
2023/01/04 01:48:27;;;;;;;68.57;32.85;;;;;;;3.10;69.74;99784.34;4969048;28;20035;-66
2023/01/04 01:50:59;;;;;;;67.72;31.02;;;;;;;3.09;69.52;99779.94;4968400;28;20058;-69
2023/01/04 01:53:27;;;;;;;68.70;31.35;;;;;;;3.09;69.57;99786.22;4969371;28;20057;-69
2023/01/04 01:55:54;;;;;;;66.20;31.50;;;;;;;3.05;70.54;99778.75;4968996;28;20053;-69
2023/01/04 01:58:32;;;;;;;59.30;28.52;;;;;;;3.04;70.25;99777.91;4969466;28;20378;-68
2023/01/04 02:00:58;;;;;;;60.38;29.48;;;;;;;3.02;70.07;99779.16;4967640;28;20027;-69
2023/01/04 02:03:30;;;;;;;66.40;31.23;;;;;;;3.00;70.10;99775.84;4969321;28;20109;-68
2023/01/04 02:06:00;;;;;;;61.58;29.90;;;;;;;2.98;69.63;99773.31;4969048;28;20490;-68
2023/01/04 02:08:26;;;;;;;59.38;27.38;;;;;;;2.98;69.59;99767.91;4969397;28;20038;-69
2023/01/04 02:10:51;;;;;;;52.40;25.88;;;;;;;2.95;69.90;99765.63;4968528;28;20039;-69
2023/01/04 02:13:22;;;;;;;51.25;25.05;;;;;;;2.89;70.08;99772.75;4967983;28;20034;-68
2023/01/04 02:16:08;;;;;;;;;;;;;;;2.87;69.73;99772.13;4968526;28;20023;-69
2023/01/04 02:18:53;;;;;;;48.83;23.15;;;;;;;2.83;69.64;99760.03;4968275;28;20010;-68
2023/01/04 02:21:35;;;;;;;46.90;22.35;;;;;;;2.80;69.65;99755.91;4967512;28;20085;-68
2023/01/04 02:24:19;;;;;;;47.42;24.20;;;;;;;2.78;70.53;99757.97;4967929;28;20106;-68
2023/01/04 02:26:47;;;;;;;44.35;22.83;;;;;;;2.75;70.30;99747.56;4967142;28;20030;-68
2023/01/04 02:29:45;;;;;;;46.92;22.73;;;;;;;2.67;70.75;99756.72;4968816;28;20035;-67
2023/01/04 02:32:32;;;;;;;48.15;22.00;;;;;;;2.63;70.41;99747.41;4968179;28;20489;-68
2023/01/04 02:35:09;;;;;;;40.45;22.10;;;;;;;2.62;69.99;99748.44;4968484;28;20399;-69
2023/01/04 02:37:49;;;;;;;41.95;21.58;;;;;;;2.60;70.89;99742.41;4967515;28;20058;-68
2023/01/04 02:40:21;;;;;;;49.72;23.70;;;;;;;2.58;71.04;99747.19;4967915;28;20060;-68
2023/01/04 02:45:56;;;;;;;50.05;23.88;;;;;;;2.58;70.62;99736.38;4967150;28;20122;-68
2023/01/04 02:51:26;;;;;;;54.08;26.88;;;;;;;2.57;70.61;99736.56;4968173;28;20077;-68
2023/01/04 02:53:52;;;;;;;54.20;25.83;;;;;;;2.54;70.87;99732.41;4967576;28;20666;-68
2023/01/04 02:56:34;;;;;;;51.20;26.60;;;;;;;2.53;71.19;99730.75;4968172;28;20039;-68
2023/01/04 02:59:02;;;;;;;53.33;25.98;;;;;;;2.48;71.29;99722.41;4968305;28;20547;-68
2023/01/04 03:07:25;;;;;;;64.15;29.67;;;;;;;2.42;70.65;99721.41;5069681;28;20507;-68
2023/01/04 03:09:59;;;;;;;64.57;30.67;;;;;;;2.37;71.04;99716.59;5069365;28;20052;-68
2023/01/04 03:12:31;;;;;;;58.38;28.38;;;;;;;2.33;71.24;99714.53;5069117;28;20025;-68
2023/01/04 03:15:27;;;;;;;46.70;22.60;;;;;;;2.28;71.08;99706.22;5069295;28;20036;-68
2023/01/04 03:17:57;;;;;;;43.08;21.60;;;;;;;2.27;71.75;99701.84;5069698;28;20472;-68
2023/01/04 03:20:26;;;;;;;39.88;21.98;;;;;;;2.26;71.03;99700.19;5069375;28;20020;-68
2023/01/04 03:37:33;;;;;;;38.70;20.27;;;;;;;2.08;71.95;99694.38;4968094;28;20042;-67
2023/01/04 03:49:19;;;;;;;43.50;21.55;;;;;;;2.05;71.93;99683.13;4980813;28;20046;-68
2023/01/04 03:51:46;;;;;;;41.42;21.27;;;;;;;2.05;71.70;99685.81;5068933;28;20024;-67
2023/01/04 03:54:20;;;;;;;42.47;21.83;;;;;;;2.03;72.16;99685.22;5069040;28;20033;-68
2023/01/04 03:56:48;;;;;;;39.33;21.17;;;;;;;2.01;71.84;99682.72;5069068;28;20041;-68
2023/01/04 03:59:14;;;;;;;39.35;20.33;;;;;;;2.01;71.82;99677.31;5069028;28;20028;-67
2023/01/04 04:01:42;;;;;;;35.67;19.77;;;;;;;2.00;72.36;99674.81;5068612;28;20499;-68
2023/01/04 04:09:35;;;;;;;41.50;20.75;;;;;;;1.98;72.74;99677.72;4984437;28;20046;-68
2023/01/04 04:12:01;;;;;;;39.15;20.08;;;;;;;1.97;73.16;99667.13;5026054;28;20041;-68
2023/01/04 04:14:26;;;;;;;38.83;21.30;;;;;;;1.97;72.69;99673.34;5068608;28;20031;-67
2023/01/04 04:16:51;;;;;;;39.10;19.73;;;;;;;1.95;73.25;99670.03;4996754;28;20443;-67
2023/01/04 04:19:17;;;;;;;38.30;21.13;;;;;;;1.92;72.49;99665.88;4967519;28;20141;-67
2023/01/04 04:21:42;;;;;;;39.53;21.60;;;;;;;1.92;73.09;99660.47;4967527;28;20072;-67
2023/01/04 04:24:16;;;;;;;39.55;20.83;;;;;;;1.93;73.21;99658.56;4967361;28;20027;-67
2023/01/04 04:26:41;;;;;;;39.20;21.17;;;;;;;1.95;72.96;99658.38;4967252;28;20031;-67
2023/01/04 04:29:07;;;;;;;38.15;20.98;;;;;;;1.95;72.70;99658.38;4967432;28;20065;-68
2023/01/04 04:31:32;;;;;;;41.00;21.80;;;;;;;1.96;72.95;99651.94;4967127;28;20030;-67
2023/01/04 04:33:58;;;;;;;37.65;21.38;;;;;;;1.97;73.55;99637.38;4968598;28;20110;-68
2023/01/04 04:36:23;;;;;;;38.60;20.85;;;;;;;1.99;73.14;99641.50;4970582;28;20055;-68
2023/01/04 04:38:48;;;;;;;38.17;20.27;;;;;;;2.01;73.46;99634.00;4970522;28;20054;-67
2023/01/04 04:43:58;;;;;;;35.75;19.23;;;;;;;2.03;73.67;99642.75;4970664;28;20100;-68
2023/01/04 04:46:23;;;;;;;38.15;20.52;;;;;;;2.02;73.76;99635.69;5064238;28;20056;-67
2023/01/04 04:48:49;;;;;;;33.60;19.20;;;;;;;2.02;73.91;99634.84;5003622;28;20035;-68
2023/01/04 04:51:15;;;;;;;38.08;20.13;;;;;;;2.02;73.36;99634.84;4970701;28;20384;-67
2023/01/04 04:53:40;;;;;;;37.88;20.60;;;;;;;2.00;73.46;99632.34;4970359;28;20074;-68
2023/01/04 04:56:06;;;;;;;41.28;23.23;;;;;;;2.00;73.95;99626.13;4969701;28;20043;-68
2023/01/04 04:58:32;;;;;;;35.05;21.30;;;;;;;2.00;73.61;99626.94;4970552;28;20110;-67
2023/01/04 05:00:57;;;;;;;33.53;20.00;;;;;;;1.99;73.97;99619.03;4969949;28;20031;-68
2023/01/04 05:03:23;;;;;;;41.28;21.88;;;;;;;1.99;73.79;99616.34;5019200;28;20055;-67
2023/01/04 05:05:48;;;;;;;42.95;22.85;;;;;;;2.01;73.66;99606.94;5072110;28;20514;-67
2023/01/04 05:08:13;;;;;;;42.45;23.55;;;;;;;2.01;73.86;99609.66;5072080;28;20024;-69
2023/01/04 05:10:39;;;;;;;43.50;22.98;;;;;;;2.00;73.98;99607.19;5071461;28;20551;-67
2023/01/04 05:13:09;;;;;;;44.80;24.08;;;;;;;1.97;73.50;99600.31;5022452;28;20489;-67
2023/01/04 05:15:39;;;;;;;43.63;23.77;;;;;;;1.96;73.73;99606.75;5011160;28;20031;-68
2023/01/04 05:18:06;;;;;;;44.45;21.70;;;;;;;1.96;73.75;99606.75;4969139;28;20055;-68
2023/01/04 05:20:32;;;;;;;44.40;25.23;;;;;;;1.96;74.17;99603.22;4968114;28;20031;-68
2023/01/04 05:22:57;;;;;;;40.45;20.95;;;;;;;1.92;73.38;99590.13;4969861;28;20041;-67
2023/01/04 05:25:23;;;;;;;42.65;22.00;;;;;;;1.92;73.60;99595.53;4969313;28;20038;-68
2023/01/04 05:27:48;;;;;;;38.90;19.98;;;;;;;1.92;74.28;99597.38;5013901;28;20108;-68
2023/01/04 05:33:00;;;;;;;40.95;23.10;;;;;;;1.88;73.90;99597.00;4967859;28;20049;-68
2023/01/04 05:35:26;;;;;;;42.05;20.80;;;;;;;1.84;74.03;99595.75;4969321;28;20109;-68
2023/01/04 05:37:51;;;;;;;38.50;21.45;;;;;;;1.82;74.29;99597.03;4971871;28;20039;-68
2023/01/04 05:40:17;;;;;;;45.00;21.27;;;;;;;1.83;74.44;99594.09;5069367;28;20090;-68
2023/01/04 05:42:43;;;;;;;38.45;20.15;;;;;;;1.83;74.18;99593.28;5054002;28;20046;-68
2023/01/04 05:45:09;;;;;;;36.95;19.55;;;;;;;1.81;74.30;99584.53;4968633;28;20031;-68
2023/01/04 05:47:34;;;;;;;39.10;20.77;;;;;;;1.81;74.49;99579.13;4969686;28;20031;-68
2023/01/04 05:50:00;;;;;;;40.63;21.52;;;;;;;1.77;73.75;99568.72;4969371;28;20027;-68
2023/01/04 05:52:25;;;;;;;45.85;24.75;;;;;;;1.77;74.35;99574.13;5059767;28;20089;-67
2023/01/04 05:54:51;;;;;;;39.85;21.67;;;;;;;1.77;74.05;99574.13;5069393;28;20509;-68
2023/01/04 05:57:17;;;;;;;39.67;20.90;;;;;;;1.76;73.99;99579.75;5070571;28;20033;-68
2023/01/04 05:59:42;;;;;;;40.35;21.52;;;;;;;1.73;74.07;99570.19;5070582;28;20097;-68
2023/01/04 06:02:20;;;;;;;40.45;20.48;;;;;;;1.71;74.79;99574.97;5070743;28;20067;-68
2023/01/04 06:04:46;;;;;;;35.97;19.25;;;;;;;1.68;74.44;99577.25;4969076;28;20038;-67
2023/01/04 06:07:12;;;;;;;37.78;18.75;;;;;;;1.66;73.83;99582.88;5008298;28;20027;-68
2023/01/04 06:09:38;;;;;;;35.35;17.38;;;;;;;1.66;73.98;99584.75;4978466;28;20023;-68
2023/01/04 06:12:04;;;;;;;34.70;18.40;;;;;;;1.64;74.07;99584.97;5070310;28;20388;-67
2023/01/04 06:14:29;;;;;;;33.20;18.77;;;;;;;1.61;74.62;99580.81;5027969;28;20046;-69
2023/01/04 06:16:54;;;;;;;34.50;18.70;;;;;;;1.60;74.02;99578.31;4988987;28;20035;-68
2023/01/04 06:19:20;;;;;;;42.95;21.63;;;;;;;1.58;74.31;99583.09;4969154;28;20047;-68
2023/01/04 06:21:45;;;;;;;37.35;19.80;;;;;;;1.57;75.04;99581.44;5021497;28;20024;-68
2023/01/04 06:24:11;;;;;;;36.17;19.95;;;;;;;1.54;74.20;99579.13;5070108;28;20048;-68
2023/01/04 06:26:36;;;;;;;37.83;19.95;;;;;;;1.52;74.73;99581.22;5069993;28;20075;-68
2023/01/04 06:29:02;;;;;;;35.30;19.52;;;;;;;1.52;75.01;99584.78;5070147;28;20032;-68
2023/01/04 06:31:28;;;;;;;47.00;23.17;;;;;;;1.50;74.81;99578.75;4993494;28;20066;-68
2023/01/04 06:33:54;;;;;;;41.70;21.98;;;;;;;1.49;74.59;99571.66;4968795;28;20023;-68
2023/01/04 06:36:20;;;;;;;42.83;20.98;;;;;;;1.49;75.04;99563.56;4968335;28;20026;-68
2023/01/04 06:38:45;;;;;;;41.58;22.33;;;;;;;1.48;74.76;99570.00;5061558;28;20196;-68
2023/01/04 06:41:10;;;;;;;41.65;20.70;;;;;;;1.48;74.66;99570.00;5069642;28;20037;-68
2023/01/04 06:43:36;;;;;;;37.10;22.35;;;;;;;1.47;74.49;99571.84;5025892;28;20030;-68
2023/01/04 06:46:02;;;;;;;35.05;20.45;;;;;;;1.50;74.51;99565.22;4968509;28;20101;-68
2023/01/04 06:48:27;;;;;;;39.88;22.25;;;;;;;1.50;74.74;99551.69;5026469;28;20484;-67
2023/01/04 06:50:53;;;;;;;39.22;19.73;;;;;;;1.55;74.59;99553.75;5069696;28;20028;-68
2023/01/04 06:53:18;;;;;;;36.47;19.23;;;;;;;1.56;74.81;99545.47;5070165;28;20106;-68
2023/01/04 06:55:44;;;;;;;37.47;20.60;;;;;;;1.57;74.16;99548.97;5067594;28;20702;-68
2023/01/04 06:58:09;;;;;;;41.97;20.80;;;;;;;1.56;74.43;99540.06;5069818;28;20229;-68
2023/01/04 07:00:35;;;;;;;38.58;20.73;;;;;;;1.53;74.63;99545.88;5069703;28;20102;-69
2023/01/04 07:03:00;;;;;;;36.30;19.50;;;;;;;1.53;74.29;99532.34;5010181;28;20038;-67
2023/01/04 07:05:26;;;;;;;35.88;19.38;;;;;;;1.54;74.26;99546.69;5001954;28;20464;-68
2023/01/04 07:07:51;;;;;;;34.25;18.40;;;;;;;1.54;74.22;99536.72;5025308;28;20088;-68
2023/01/04 07:10:16;;;;;;;38.95;20.80;;;;;;;1.55;74.79;99529.44;5056800;28;20036;-68
2023/01/04 07:12:42;;;;;;;42.53;22.52;;;;;;;1.51;74.75;99536.28;5068317;28;20047;-68
2023/01/04 07:15:08;;;;;;;44.00;23.58;;;;;;;1.49;74.14;99541.94;5069453;28;20040;-69
2023/01/04 07:17:33;;;;;;;49.33;31.20;;;;;;;1.46;75.00;99535.06;5069399;28;20078;-68
2023/01/04 07:19:58;;;;;;;49.65;28.88;;;;;;;1.44;75.00;99536.31;5068140;28;20094;-68
2023/01/04 07:22:24;;;;;;;42.95;25.08;;;;;;;1.42;74.89;99539.25;4975459;28;20037;-68
2023/01/04 07:24:49;;;;;;;48.45;26.90;;;;;;;1.43;74.18;99534.66;4967381;28;20063;-68
2023/01/04 07:27:15;;;;;;;40.85;23.75;;;;;;;1.42;74.71;99533.84;4968427;28;20031;-68
2023/01/04 07:29:43;;;;;;;43.55;25.45;;;;;;;1.41;74.54;99539.44;4968683;28;20571;-69
2023/01/04 07:32:09;;;;;;;45.55;24.73;;;;;;;1.40;75.04;99551.28;4969052;28;20103;-69
2023/01/04 07:34:36;;;;;;;52.03;24.50;;;;;;;1.39;75.02;99557.72;4968558;28;20038;-69
2023/01/04 07:37:02;;;;;;;60.88;28.00;;;;;;;1.36;75.35;99548.19;4966650;28;20216;-69
2023/01/04 07:39:28;;;;;;;51.13;27.35;;;;;;;1.35;74.96;99560.03;4968649;28;20031;-69
2023/01/04 07:41:53;;;;;;;52.65;26.08;;;;;;;1.34;75.05;99556.50;4968978;28;20023;-69
2023/01/04 07:44:20;;;;;;;43.63;24.23;;;;;;;1.32;74.72;99555.88;4984381;28;20043;-69
2023/01/04 07:46:46;;;;;;;44.30;22.67;;;;;;;1.33;74.87;99551.31;4966159;28;20110;-71
2023/01/04 07:49:14;;;;;;;54.53;27.27;;;;;;;1.33;75.00;99551.31;5051806;28;20024;-71
2023/01/04 07:51:40;;;;;;;43.78;23.63;;;;;;;1.34;75.02;99536.75;4965318;28;20023;-70
2023/01/04 07:54:05;;;;;;;44.83;22.40;;;;;;;1.34;75.13;99539.44;4968385;28;20062;-70
2023/01/04 07:56:31;;;;;;;46.13;24.00;;;;;;;1.34;75.53;99534.03;4966136;28;20066;-70
2023/01/04 07:58:58;;;;;;;43.13;22.42;;;;;;;1.36;75.00;99541.94;4968399;28;20403;-70
2023/01/04 08:01:25;;;;;;;42.47;21.33;;;;;;;1.39;75.40;99536.97;4968323;28;20042;-69
2023/01/04 08:03:51;;;;;;;45.05;22.60;;;;;;;1.39;75.46;99534.25;4968135;28;20031;-70
2023/01/04 08:06:18;;;;;;;45.30;23.02;;;;;;;1.40;75.16;99533.22;4967901;28;20464;-70
2023/01/04 08:08:44;;;;;;;41.95;22.35;;;;;;;1.42;75.81;99531.13;4969399;28;20030;-70
2023/01/04 08:11:13;;;;;;;42.33;22.58;;;;;;;1.46;75.75;99532.34;4967735;28;20035;-69
2023/01/04 08:13:39;;;;;;;44.22;22.92;;;;;;;1.49;75.71;99523.81;4971510;28;20045;-70
2023/01/04 08:16:05;;;;;;;38.78;19.67;;;;;;;1.51;76.28;99523.63;4971770;28;20034;-69
2023/01/04 08:18:30;;;;;;;37.45;18.63;;;;;;;1.54;76.44;99512.38;4971670;28;20037;-69
2023/01/04 08:21:07;;;;;;;34.55;18.17;;;;;;;1.57;75.95;99514.69;5063930;28;20032;-70
2023/01/04 08:23:34;;;;;;;36.08;19.15;;;;;;;1.62;76.43;99508.63;5073725;28;20072;-70
2023/01/04 08:26:05;;;;;;;39.40;21.10;;;;;;;1.65;76.22;99510.91;5073024;28;20041;-70
2023/01/04 08:28:32;;;;;;;37.45;18.65;;;;;;;1.71;75.93;99511.91;4999065;28;20391;-70
2023/01/04 08:30:57;;;;;;;39.38;20.45;;;;;;;1.75;76.59;99511.31;4971661;28;20042;-70
2023/01/04 08:33:23;;;;;;;40.47;20.67;;;;;;;1.79;76.22;99511.69;4977701;28;20031;-71
2023/01/04 08:35:48;;;;;;;41.33;22.27;;;;;;;1.83;76.16;99510.22;5071696;28;20068;-70
2023/01/04 08:38:14;;;;;;;40.88;20.73;;;;;;;1.90;75.95;99512.91;5011960;28;20031;-70
2023/01/04 08:40:40;;;;;;;42.65;20.02;;;;;;;1.95;76.10;99498.75;5070189;28;20112;-70
2023/01/04 08:43:05;;;;;;;43.65;21.58;;;;;;;1.98;75.77;99501.84;5066166;28;20024;-70
2023/01/04 08:45:30;;;;;;;40.85;19.38;;;;;;;2.03;75.71;99509.34;5073261;28;20374;-70
2023/01/04 08:47:56;;;;;;;44.35;22.00;;;;;;;2.06;76.33;99507.03;5073216;28;20031;-71
2023/01/04 08:50:21;;;;;;;41.25;19.92;;;;;;;2.12;76.28;99509.94;5029608;28;20023;-70
2023/01/04 08:52:47;;;;;;;38.72;19.33;;;;;;;2.12;76.72;99509.94;4971873;28;20479;-70
2023/01/04 08:55:14;;;;;;;37.65;19.73;;;;;;;2.14;76.27;99505.13;5055923;28;20056;-69
2023/01/04 08:57:40;;;;;;;46.72;24.42;;;;;;;2.12;76.50;99494.50;5062385;28;20028;-70
2023/01/04 09:00:06;;;;;;;43.45;22.90;;;;;;;2.11;76.66;99486.63;5014446;28;20084;-70
2023/01/04 09:02:32;;;;;;;37.97;19.10;;;;;;;2.12;76.36;99489.09;4971030;28;20041;-70
2023/01/04 09:05:02;;;;;;;31.17;15.18;;;;;;;2.14;76.62;99480.78;4970741;28;20114;-70
2023/01/04 09:07:29;;;;;;;32.42;18.00;;;;;;;2.18;76.20;99487.41;5019313;28;20041;-69
2023/01/04 09:09:54;;;;;;;30.23;16.70;;;;;;;2.19;76.67;99479.06;4964648;28;20101;-70
2023/01/04 09:12:19;;;;;;;29.92;16.83;;;;;;;2.21;75.91;99492.41;4967609;28;20125;-69
2023/01/04 09:14:45;;;;;;;27.63;15.77;;;;;;;2.25;76.31;99487.38;4968812;28;20026;-70
2023/01/04 09:17:10;;;;;;;26.60;14.63;;;;;;;2.29;76.34;99480.47;4967207;28;20039;-69
2023/01/04 09:19:36;;;;;;;28.75;15.65;;;;;;;2.31;77.02;99470.28;4967328;28;20035;-71
2023/01/04 09:22:01;;;;;;;29.00;14.80;;;;;;;2.34;76.45;99467.94;5018012;28;20041;-71
2023/01/04 09:24:27;;;;;;;25.10;14.63;;;;;;;2.38;76.66;99468.34;5000288;28;20034;-70
2023/01/04 09:26:52;;;;;;;28.48;14.82;;;;;;;2.40;76.30;99474.38;4969689;28;20043;-69
2023/01/04 09:29:18;;;;;;;27.58;14.77;;;;;;;2.45;76.90;99471.00;4995631;28;20488;-68
2023/01/04 09:31:43;;;;;;;29.02;15.32;;;;;;;2.49;76.99;99461.41;5059473;28;20433;-70
2023/01/04 09:34:10;;;;;;;29.98;16.15;;;;;;;2.51;76.20;99448.47;4972678;28;20100;-69
2023/01/04 09:36:36;;;;;;;28.98;15.90;;;;;;;2.55;76.59;99446.16;4987075;28;20019;-68
2023/01/04 09:39:02;;;;;;;27.50;15.45;;;;;;;2.57;76.61;99435.94;4996782;28;20023;-68
2023/01/04 09:41:29;;;;;;;30.70;16.90;;;;;;;2.59;76.61;99429.25;5007295;28;20370;-69
2023/01/04 09:44:00;;;;;;;29.83;16.23;;;;;;;2.65;76.03;99427.53;5019445;28;20042;-68
2023/01/04 09:46:51;;;;;;;27.15;15.88;;;;;;;2.68;75.88;99421.69;4969693;28;20027;-67
2023/01/04 09:49:34;;;;;;;28.90;17.02;;;;;;;2.72;76.67;99417.50;4969569;28;20084;-70
2023/01/04 09:52:08;;;;;;;25.90;14.52;;;;;;;2.77;76.20;99408.69;4968420;28;20518;-70
2023/01/04 09:54:46;;;;;;;28.80;15.57;;;;;;;2.81;76.02;99402.63;4972806;28;20031;-69
2023/01/04 09:57:31;;;;;;;27.55;16.10;;;;;;;2.89;76.15;99398.78;5034122;28;20032;-70
2023/01/04 10:00:09;;;;;;;24.50;13.52;;;;;;;2.96;76.73;99386.03;5018437;28;20027;-71
2023/01/04 10:02:48;;;;;;;29.83;18.83;;;;;;;3.03;76.04;99391.38;4966113;28;20103;-68
2023/01/04 10:05:25;;;;;;;23.98;15.13;;;;;;;3.13;76.04;99399.81;4968141;28;20134;-68
2023/01/04 10:07:50;;;;;;;26.98;14.05;;;;;;;3.22;76.18;99389.50;4966223;28;20046;-69
2023/01/04 10:10:20;;;;;;;25.88;14.13;;;;;;;3.28;76.24;99383.19;4966926;28;20026;-70
2023/01/04 10:13:00;;;;;;;26.38;13.80;;;;;;;3.38;76.34;99366.38;4967630;28;20035;-70
2023/01/04 10:15:39;;;;;;;23.63;15.25;;;;;;;3.45;76.86;99358.19;4968395;28;20062;-70
2023/01/04 10:18:08;;;;;;;24.90;15.07;;;;;;;3.53;76.14;99363.28;4968871;28;20110;-69
2023/01/04 10:20:45;;;;;;;23.70;13.50;;;;;;;3.61;76.08;99354.03;4966842;28;20031;-69
2023/01/04 10:23:23;;;;;;;24.00;13.48;;;;;;;3.71;76.25;99345.31;4966873;28;20038;-70
2023/01/04 10:26:04;;;;;;;23.92;14.30;;;;;;;3.77;76.29;99330.84;4968332;28;20030;-70
2023/01/04 10:28:51;;;;;;;20.77;12.68;;;;;;;3.89;76.07;99317.31;4968667;28;20513;-70
2023/01/04 10:31:41;;;;;;;20.83;13.32;;;;;;;3.98;76.29;99306.94;4968004;28;20046;-70
2023/01/04 10:34:15;;;;;;;22.48;14.00;;;;;;;4.05;76.17;99299.53;4967855;28;20043;-67
2023/01/04 10:36:42;;;;;;;22.85;13.13;;;;;;;4.12;76.04;99288.56;4977327;28;20146;-67
2023/01/04 10:39:17;;;;;;;22.65;14.63;;;;;;;4.16;76.08;99290.59;4968099;28;20038;-68
2023/01/04 10:42:08;;;;;;;19.80;12.73;;;;;;;4.25;75.75;99287.53;5030151;28;21425;-68
2023/01/04 10:45:09;;;;;;;21.80;13.30;;;;;;;4.32;75.69;99299.94;5014913;28;20032;-68
2023/01/04 10:47:55;;;;;;;20.63;13.25;;;;;;;4.46;75.62;99291.59;4975721;28;20043;-68
2023/01/04 10:50:59;;;;;;;19.52;11.65;;;;;;;4.58;75.45;99284.25;4966931;28;20085;-68
2023/01/04 10:53:35;;;;;;;20.52;11.98;;;;;;;4.66;75.16;99291.22;4966991;28;20065;-67
2023/01/04 10:56:13;;;;;;;19.33;11.65;;;;;;;4.74;75.08;99277.25;4966342;28;20039;-69
2023/01/04 10:58:50;;;;;;;18.13;10.98;;;;;;;4.83;75.27;99252.44;4966607;28;20114;-69
2023/01/04 11:01:27;;;;;;;17.48;10.50;;;;;;;4.90;74.84;99253.94;4967718;28;20033;-69
2023/01/04 11:04:10;;;;;;;20.02;10.93;;;;;;;4.95;74.48;99249.69;4969415;28;20420;-69
2023/01/04 11:06:52;;;;;;;17.45;11.35;;;;;;;4.99;74.92;99242.72;4969237;28;20053;-69
2023/01/04 11:09:23;;;;;;;16.92;10.05;;;;;;;5.05;74.45;99234.44;4971201;28;20064;-69
2023/01/04 11:11:50;;;;;;;15.55;9.32;;;;;;;5.12;74.30;99219.84;4969026;28;20502;-70
2023/01/04 11:14:15;;;;;;;15.32;8.93;;;;;;;5.16;74.35;99219.16;4968996;28;20086;-69
2023/01/04 11:16:46;;;;;;;14.85;8.60;;;;;;;5.22;74.18;99210.03;4969504;28;20512;-69
2023/01/04 11:19:12;;;;;;;14.13;8.68;;;;;;;5.27;74.27;99211.19;4968989;28;20141;-69
2023/01/04 11:21:47;;;;;;;15.25;9.18;;;;;;;5.32;74.04;99214.84;5043010;28;20132;-69
2023/01/04 11:24:15;;;;;;;11.73;7.00;;;;;;;5.37;73.40;99203.22;4982985;28;20034;-69
2023/01/04 11:26:43;;;;;;;15.43;8.43;;;;;;;5.40;73.25;99191.84;4980047;28;20035;-68
2023/01/04 11:29:30;;;;;;;12.85;7.28;;;;;;;5.43;73.12;99198.72;4966274;28;20068;-68
2023/01/04 11:32:02;;;;;;;12.35;7.95;;;;;;;5.47;72.79;99191.72;4967194;28;20038;-68
2023/01/04 11:34:45;;;;;;;12.35;7.70;;;;;;;5.50;72.67;99189.31;4969439;28;20089;-68
2023/01/04 11:37:27;;;;;;;13.00;8.75;;;;;;;5.54;71.96;99184.19;4966618;28;20066;-69
2023/01/04 11:40:17;;;;;;;11.65;7.47;;;;;;;5.57;71.57;99180.19;4965269;28;20038;-68
2023/01/04 11:43:10;;;;;;;12.63;8.50;;;;;;;5.57;71.07;99170.09;4966939;28;20154;-70
2023/01/04 11:45:36;;;;;;;13.35;7.65;;;;;;;5.56;70.95;99154.84;4991039;28;20080;-71
2023/01/04 11:48:05;;;;;;;15.20;7.80;;;;;;;5.57;70.42;99163.84;5017456;28;20024;-70
2023/01/04 11:50:42;;;;;;;12.90;9.00;;;;;;;5.55;70.96;99150.47;4969966;28;20034;-68
2023/01/04 11:53:27;;;;;;;16.38;9.73;;;;;;;5.57;71.05;99151.06;4968651;28;20027;-69
2023/01/04 11:56:23;;;;;;;15.15;8.73;;;;;;;5.60;70.87;99149.75;4998311;28;20050;-68
2023/01/04 11:59:15;;;;;;;14.00;8.77;;;;;;;5.61;71.27;99144.06;4969598;28;20037;-70
2023/01/04 12:01:43;;;;;;;17.02;9.45;;;;;;;5.68;71.13;99134.91;5017052;28;20479;-70
2023/01/04 12:04:34;;;;;;;15.32;8.88;;;;;;;5.70;71.32;99130.88;5005267;28;20081;-70
2023/01/04 12:07:10;;;;;;;15.30;8.80;;;;;;;5.78;71.04;99135.06;5047731;28;20101;-70
2023/01/04 12:09:35;;;;;;;12.07;6.50;;;;;;;5.81;70.29;99135.38;5071929;28;20028;-69
2023/01/04 12:12:01;;;;;;;12.55;6.95;;;;;;;5.81;70.36;99146.28;5004993;28;20042;-70
2023/01/04 12:14:36;;;;;;;11.07;6.38;;;;;;;5.83;70.02;99135.16;5014570;28;20121;-69
2023/01/04 12:17:20;;;;;;;10.60;6.47;;;;;;;5.84;69.62;99128.63;5024438;28;20040;-70
2023/01/04 12:19:46;;;;;;;12.98;7.95;;;;;;;5.86;69.89;99121.06;4968560;28;20368;-69
2023/01/04 12:22:34;;;;;;;12.60;6.97;;;;;;;5.88;69.80;99118.06;4969362;28;20082;-69
2023/01/04 12:25:01;;;;;;;10.55;6.43;;;;;;;5.89;69.61;99103.38;4968005;28;20030;-69